Time;durP1;ratioP1;P1;durP2;ratioP2;P2;SDS_P1;SDS_P2;PMS_P1;PMS_P2;Temp;Humidity;BMP_temperature;BMP_pressure;BME280_temperature;BME280_humidity;BME280_pressure;Samples;Min_cycle;Max_cycle;Signal;HPM_P1;HPM_P2
2024/01/16 00:00:54;;;;;;;10.15;2.60;;;20.20;54.40;;;;;;5097613;27;20046;-60
2024/01/16 00:03:20;;;;;;;7.65;2.83;;;20.20;55.00;;;;;;5101581;27;20027;-60
2024/01/16 00:05:46;;;;;;;8.15;2.70;;;20.20;55.00;;;;;;5117386;27;20399;-60
2024/01/16 00:08:12;;;;;;;10.93;3.00;;;20.10;54.20;;;;;;5111250;28;20035;-61
2024/01/16 00:10:38;;;;;;;10.23;2.80;;;20.20;54.80;;;;;;5067789;28;20384;-61
2024/01/16 00:13:04;;;;;;;10.05;3.00;;;20.20;54.80;;;;;;5112031;27;20053;-61
2024/01/16 00:15:30;;;;;;;10.98;2.95;;;20.20;54.90;;;;;;5108139;28;20020;-62
2024/01/16 00:17:56;;;;;;;8.85;2.40;;;20.20;54.80;;;;;;5084641;28;20084;-60
2024/01/16 00:20:23;;;;;;;12.50;2.60;;;20.20;54.90;;;;;;5105172;28;20412;-61
2024/01/16 00:22:49;;;;;;;15.38;2.75;;;20.20;55.20;;;;;;5091149;28;20047;-61
2024/01/16 00:25:14;;;;;;;10.35;2.63;;;20.30;55.60;;;;;;5107371;28;20039;-60
2024/01/16 00:27:40;;;;;;;15.32;3.10;;;20.30;55.50;;;;;;5110755;28;20073;-59
2024/01/16 00:30:07;;;;;;;15.15;3.35;;;20.30;55.00;;;;;;5105159;28;20024;-61
2024/01/16 00:32:33;;;;;;;8.05;2.45;;;20.30;54.70;;;;;;5090811;28;20147;-62
2024/01/16 00:34:59;;;;;;;7.05;2.28;;;20.20;54.20;;;;;;5088731;28;20032;-62
2024/01/16 00:37:24;;;;;;;9.10;2.60;;;20.20;53.80;;;;;;5105667;28;20012;-62
2024/01/16 00:39:50;;;;;;;8.43;2.25;;;20.20;53.70;;;;;;5109805;28;20462;-62
2024/01/16 00:42:16;;;;;;;11.82;3.22;;;20.20;53.70;;;;;;5105374;28;20043;-63
2024/01/16 00:44:42;;;;;;;7.28;2.40;;;20.20;53.60;;;;;;5100065;28;20023;-61
2024/01/16 00:47:08;;;;;;;7.07;2.17;;;20.10;53.40;;;;;;5087661;28;20031;-62
2024/01/16 00:49:35;;;;;;;11.93;2.17;;;20.20;53.20;;;;;;5109435;28;20390;-61
2024/01/16 00:52:01;;;;;;;6.88;2.35;;;20.20;53.20;;;;;;5109997;28;20031;-61
2024/01/16 00:54:27;;;;;;;6.90;2.30;;;20.20;53.30;;;;;;5089706;28;20036;-62
2024/01/16 00:56:59;;;;;;;9.52;2.35;;;20.10;53.10;;;;;;5104090;28;20165;-62
2024/01/16 00:59:25;;;;;;;13.77;2.70;;;20.10;53.10;;;;;;5107656;28;20135;-62
2024/01/16 01:01:51;;;;;;;6.95;2.28;;;20.10;53.10;;;;;;5096142;28;20091;-62
2024/01/16 01:04:17;;;;;;;8.90;2.17;;;20.10;53.60;;;;;;5109606;28;20210;-62
2024/01/16 01:06:43;;;;;;;7.90;2.42;;;20.10;53.00;;;;;;5110160;28;20096;-62
2024/01/16 01:09:11;;;;;;;5.70;1.95;;;20.10;53.00;;;;;;5090214;28;20031;-62
2024/01/16 01:11:38;;;;;;;4.20;2.00;;;20.10;52.80;;;;;;5109541;27;20038;-62
2024/01/16 01:14:04;;;;;;;6.55;1.95;;;20.10;53.00;;;;;;5114314;28;20023;-62
2024/01/16 01:16:31;;;;;;;13.35;2.38;;;20.10;52.60;;;;;;5078513;28;20028;-62
2024/01/16 01:18:57;;;;;;;3.65;1.92;;;20.10;52.60;;;;;;5102610;27;20038;-60
2024/01/16 01:21:22;;;;;;;10.15;1.90;;;20.10;52.50;;;;;;5110882;28;20478;-60
2024/01/16 01:23:48;;;;;;;7.65;1.80;;;20.10;52.50;;;;;;5091401;28;20063;-62
2024/01/16 01:26:14;;;;;;;6.22;2.10;;;20.10;52.50;;;;;;5108623;28;20032;-62
2024/01/16 01:28:41;;;;;;;3.67;1.85;;;20.10;52.40;;;;;;5078246;28;20122;-61
2024/01/16 01:31:11;;;;;;;3.67;1.80;;;20.10;52.40;;;;;;5106937;27;20084;-62
2024/01/16 01:33:39;;;;;;;7.07;1.65;;;20.10;52.30;;;;;;5114242;28;20027;-62
2024/01/16 01:36:05;;;;;;;6.80;2.17;;;20.10;52.50;;;;;;5072991;28;20023;-62
2024/01/16 01:38:31;;;;;;;10.52;1.90;;;20.10;52.90;;;;;;5113643;28;20024;-59
2024/01/16 01:40:57;;;;;;;6.28;2.38;;;20.00;53.30;;;;;;5106734;27;20047;-62
2024/01/16 01:43:24;;;;;;;14.23;2.58;;;20.10;52.80;;;;;;5108873;27;20024;-59
2024/01/16 01:46:19;;;;;;;5.10;1.75;;;20.00;52.30;;;;;;5112882;28;20015;-59
2024/01/16 01:48:48;;;;;;;7.60;2.17;;;20.00;52.00;;;;;;5099802;28;20040;-59
2024/01/16 01:51:16;;;;;;;6.00;1.73;;;20.00;51.90;;;;;;5113506;28;20030;-60
2024/01/16 01:53:43;;;;;;;4.47;1.67;;;20.00;51.70;;;;;;5106598;28;20032;-59
2024/01/16 01:56:13;;;;;;;5.22;2.00;;;20.00;51.60;;;;;;5112934;27;20022;-59
2024/01/16 01:58:40;;;;;;;;;;;20.00;51.60;;;;;;5106497;28;20060;-59
2024/01/16 02:01:09;;;;;;;3.33;1.60;;;20.00;51.40;;;;;;5104987;28;19907;-59
2024/01/16 02:03:41;;;;;;;4.00;1.70;;;20.00;51.30;;;;;;5111461;28;20168;-61
2024/01/16 02:06:07;;;;;;;5.00;1.92;;;20.00;51.30;;;;;;5112773;28;20016;-62
2024/01/16 02:08:33;;;;;;;6.20;1.90;;;19.90;51.20;;;;;;5112382;27;20024;-62
2024/01/16 02:10:59;;;;;;;3.47;1.50;;;19.90;51.20;;;;;;5113405;28;20397;-62
2024/01/16 02:13:25;;;;;;;8.73;1.52;;;19.90;51.20;;;;;;5094790;28;20048;-62
2024/01/16 02:15:50;;;;;;;3.83;1.70;;;19.90;51.10;;;;;;5106146;27;20166;-62
2024/01/16 02:18:17;;;;;;;2.17;1.45;;;19.90;50.90;;;;;;5089520;28;20015;-62
2024/01/16 02:20:44;;;;;;;3.80;1.50;;;19.90;51.00;;;;;;5108055;28;20035;-62
2024/01/16 02:23:12;;;;;;;3.15;1.40;;;19.90;51.00;;;;;;5112872;27;20444;-61
2024/01/16 02:25:39;;;;;;;2.70;1.50;;;19.90;50.80;;;;;;5105128;27;20032;-63
2024/01/16 02:28:05;;;;;;;3.78;1.60;;;19.90;50.80;;;;;;5104816;28;20122;-62
2024/01/16 02:30:31;;;;;;;2.70;1.50;;;19.90;50.90;;;;;;5110140;28;20085;-59
2024/01/16 02:32:56;;;;;;;5.03;1.42;;;19.90;50.90;;;;;;5109743;28;20015;-59
2024/01/16 02:35:22;;;;;;;5.32;1.60;;;19.90;50.80;;;;;;5112382;27;20035;-59
2024/01/16 02:37:48;;;;;;;6.03;1.52;;;19.90;51.00;;;;;;5112427;27;20448;-62
2024/01/16 02:40:14;;;;;;;3.53;1.55;;;19.90;50.80;;;;;;5112669;28;20027;-62
2024/01/16 02:42:39;;;;;;;3.50;1.65;;;19.80;50.60;;;;;;5109402;22;20536;-58
2024/01/16 02:45:06;;;;;;;3.45;1.63;;;19.90;50.80;;;;;;5064562;28;20347;-58
2024/01/16 02:47:33;;;;;;;6.18;1.80;;;19.80;50.50;;;;;;5048797;28;20039;-58
2024/01/16 02:49:59;;;;;;;2.35;1.40;;;19.80;50.80;;;;;;5083761;28;20024;-57
2024/01/16 02:52:25;;;;;;;3.58;1.48;;;19.80;50.60;;;;;;5087189;28;20085;-56
2024/01/16 02:54:51;;;;;;;2.92;1.60;;;19.90;50.50;;;;;;5084639;28;20477;-58
2024/01/16 02:57:17;;;;;;;3.15;1.63;;;19.80;50.80;;;;;;5081737;28;20748;-55
2024/01/16 02:59:46;;;;;;;5.18;1.70;;;19.80;50.70;;;;;;5073985;28;20507;-56
2024/01/16 03:02:13;;;;;;;5.75;1.67;;;19.80;50.50;;;;;;5057072;28;20055;-58
2024/01/16 03:04:39;;;;;;;3.55;1.55;;;19.90;50.40;;;;;;5055915;28;20472;-58
2024/01/16 03:07:05;;;;;;;5.20;1.50;;;19.80;50.50;;;;;;5075506;28;20554;-58
2024/01/16 03:09:31;;;;;;;2.90;1.58;;;19.80;50.40;;;;;;5078515;28;20024;-58
2024/01/16 03:12:00;;;;;;;2.75;1.50;;;19.80;50.80;;;;;;5082409;28;20140;-58
2024/01/16 03:14:26;;;;;;;4.28;1.40;;;19.80;50.10;;;;;;5080199;28;20032;-57
2024/01/16 03:16:51;;;;;;;3.15;1.50;;;19.80;51.00;;;;;;5082519;28;20024;-58
2024/01/16 03:19:17;;;;;;;2.08;1.52;;;19.90;50.20;;;;;;5091550;28;20103;-58
2024/01/16 03:21:43;;;;;;;5.30;1.60;;;19.80;50.10;;;;;;5079866;28;20028;-56
2024/01/16 03:24:10;;;;;;;1.85;1.40;;;19.90;50.10;;;;;;5078025;28;20302;-58
2024/01/16 03:26:38;;;;;;;2.78;1.27;;;19.80;50.20;;;;;;5066321;28;20111;-59
2024/01/16 03:29:04;;;;;;;3.58;1.60;;;19.80;50.10;;;;;;5090356;28;20027;-58
2024/01/16 03:31:30;;;;;;;3.55;1.55;;;19.90;50.10;;;;;;5085016;28;20036;-59
2024/01/16 03:33:56;;;;;;;3.50;1.73;;;19.80;50.10;;;;;;5086809;28;20356;-58
2024/01/16 03:36:21;;;;;;;2.33;1.35;;;19.80;50.00;;;;;;5082554;28;20024;-57
2024/01/16 03:38:47;;;;;;;3.28;1.52;;;19.80;50.10;;;;;;5090352;28;20487;-58
2024/01/16 03:41:13;;;;;;;4.93;1.55;;;19.80;49.90;;;;;;5091128;28;20020;-59
2024/01/16 03:43:40;;;;;;;2.83;1.38;;;19.80;50.20;;;;;;5090573;28;20059;-58
2024/01/16 03:46:11;;;;;;;2.22;1.40;;;19.80;50.30;;;;;;5077193;28;20032;-58
2024/01/16 03:48:36;;;;;;;3.20;1.50;;;19.80;50.00;;;;;;5079945;28;20028;-56
2024/01/16 03:51:02;;;;;;;1.92;1.48;;;19.80;50.10;;;;;;5090477;28;20038;-58
2024/01/16 03:53:28;;;;;;;3.35;1.40;;;19.80;50.20;;;;;;5082206;28;20059;-58
2024/01/16 03:55:54;;;;;;;3.45;1.55;;;19.80;50.40;;;;;;5089937;28;20123;-58
2024/01/16 03:58:20;;;;;;;3.15;1.60;;;19.80;50.30;;;;;;5090180;28;20341;-55
2024/01/16 04:00:46;;;;;;;2.55;1.35;;;19.80;50.20;;;;;;5089587;28;20020;-57
2024/01/16 04:03:13;;;;;;;4.25;1.85;;;19.70;50.10;;;;;;5090757;28;20035;-56
2024/01/16 04:05:39;;;;;;;3.50;1.52;;;19.70;50.20;;;;;;5083732;28;20035;-57
2024/01/16 04:08:05;;;;;;;4.25;1.60;;;19.70;49.90;;;;;;5068531;28;20072;-56
2024/01/16 04:10:30;;;;;;;3.95;1.65;;;19.70;50.50;;;;;;5089590;28;20035;-51
2024/01/16 04:13:00;;;;;;;3.38;1.50;;;19.70;50.10;;;;;;5088284;28;20016;-59
2024/01/16 04:15:26;;;;;;;2.47;1.55;;;19.70;50.10;;;;;;5082271;28;20024;-57
2024/01/16 04:17:52;;;;;;;3.13;1.45;;;19.70;49.80;;;;;;5083128;28;20490;-57
2024/01/16 04:20:17;;;;;;;3.33;1.50;;;19.70;49.90;;;;;;5090241;28;20447;-53
2024/01/16 04:22:45;;;;;;;3.58;1.50;;;19.70;50.10;;;;;;5082400;28;20032;-52
2024/01/16 04:25:11;;;;;;;3.40;1.65;;;19.70;50.50;;;;;;5089950;28;20498;-58
2024/01/16 04:27:36;;;;;;;4.32;1.55;;;19.70;50.10;;;;;;5080469;28;20054;-57
2024/01/16 04:30:02;;;;;;;3.47;1.60;;;19.70;50.70;;;;;;5089592;28;20035;-56
2024/01/16 04:32:29;;;;;;;4.70;1.83;;;19.70;50.20;;;;;;5080266;28;20402;-57
2024/01/16 04:34:54;;;;;;;4.68;1.85;;;19.80;50.40;;;;;;5082543;28;20513;-58
2024/01/16 04:37:20;;;;;;;5.40;1.65;;;19.80;49.80;;;;;;5088817;28;20020;-53
2024/01/16 04:39:46;;;;;;;3.45;1.50;;;19.80;49.60;;;;;;5087551;28;20028;-53
2024/01/16 04:42:12;;;;;;;4.15;2.00;;;19.80;49.70;;;;;;5083763;28;20034;-56
2024/01/16 04:44:37;;;;;;;4.65;1.60;;;19.80;50.80;;;;;;5089758;28;20060;-58
2024/01/16 04:47:03;;;;;;;3.60;1.80;;;19.80;49.60;;;;;;5081456;28;20571;-56
2024/01/16 04:49:29;;;;;;;3.75;1.70;;;19.80;49.80;;;;;;5081693;28;20172;-57
2024/01/16 04:51:55;;;;;;;3.67;1.70;;;19.80;50.00;;;;;;5088941;28;20047;-57
2024/01/16 04:54:21;;;;;;;3.28;1.80;;;19.80;49.90;;;;;;5088253;28;20024;-56
2024/01/16 04:56:47;;;;;;;4.20;2.00;;;19.80;50.00;;;;;;5080984;28;20016;-55
2024/01/16 04:59:13;;;;;;;4.90;2.00;;;19.90;49.90;;;;;;5089467;28;20012;-55
2024/01/16 05:01:38;;;;;;;3.33;1.67;;;19.80;50.60;;;;;;5088896;28;20036;-53
2024/01/16 05:04:05;;;;;;;3.63;1.67;;;19.80;49.70;;;;;;5089519;28;20039;-58
2024/01/16 05:06:30;;;;;;;4.95;1.98;;;19.80;50.00;;;;;;5087124;28;20105;-55
2024/01/16 05:08:56;;;;;;;4.63;2.03;;;19.90;50.10;;;;;;5088637;28;20430;-55
2024/01/16 05:11:22;;;;;;;3.33;1.80;;;19.80;49.70;;;;;;5089122;28;20031;-57
2024/01/16 05:13:48;;;;;;;3.42;1.65;;;19.80;49.70;;;;;;5071006;28;20031;-54
2024/01/16 05:16:14;;;;;;;3.88;2.10;;;19.90;50.20;;;;;;5081178;28;20020;-53
2024/01/16 05:18:43;;;;;;;7.28;2.03;;;19.80;49.70;;;;;;5089383;28;20020;-56
2024/01/16 05:21:08;;;;;;;3.73;2.00;;;19.80;49.80;;;;;;5088869;28;20072;-52
2024/01/16 05:23:34;;;;;;;3.33;2.10;;;19.90;50.10;;;;;;5080263;28;20107;-54
2024/01/16 05:26:00;;;;;;;4.10;1.92;;;19.80;49.60;;;;;;5087583;28;20478;-55
2024/01/16 05:28:26;;;;;;;3.53;2.00;;;19.80;50.70;;;;;;5081318;28;20020;-56
2024/01/16 05:30:52;;;;;;;4.65;1.90;;;19.90;49.50;;;;;;5081418;28;20036;-57
2024/01/16 05:33:17;;;;;;;3.88;2.20;;;19.80;49.60;;;;;;5078292;28;20047;-58
2024/01/16 05:35:43;;;;;;;4.97;2.40;;;19.80;49.70;;;;;;5089577;28;20047;-56
2024/01/16 05:38:12;;;;;;;5.05;2.22;;;19.80;50.10;;;;;;5083094;28;20158;-56
2024/01/16 05:40:38;;;;;;;6.25;2.50;;;19.80;49.90;;;;;;5087838;28;20024;-51
2024/01/16 05:43:04;;;;;;;4.65;2.25;;;19.80;49.40;;;;;;5085349;28;20032;-57
2024/01/16 05:45:30;;;;;;;4.85;2.22;;;19.80;50.10;;;;;;5088977;28;20097;-53
2024/01/16 05:47:56;;;;;;;4.95;2.53;;;19.80;49.40;;;;;;5085584;28;20021;-55
2024/01/16 05:50:22;;;;;;;4.57;2.35;;;19.80;49.50;;;;;;5085498;28;20476;-53
2024/01/16 05:52:48;;;;;;;3.63;2.10;;;19.80;49.50;;;;;;5088376;28;20077;-55
2024/01/16 05:55:13;;;;;;;3.63;2.35;;;19.80;49.50;;;;;;5086063;28;20096;-57
2024/01/16 05:57:39;;;;;;;5.68;2.10;;;19.80;49.40;;;;;;5092687;28;20042;-51
2024/01/16 06:00:06;;;;;;;3.50;2.25;;;19.90;49.30;;;;;;5091904;28;20249;-56
2024/01/16 06:02:32;;;;;;;6.72;2.50;;;19.80;49.50;;;;;;5087129;28;20077;-57
2024/01/16 06:04:58;;;;;;;3.30;2.20;;;19.80;49.50;;;;;;5088374;28;20028;-52
2024/01/16 06:07:24;;;;;;;5.63;2.38;;;19.80;49.40;;;;;;5091050;28;20041;-56
2024/01/16 06:09:50;;;;;;;5.55;2.67;;;19.80;49.20;;;;;;5089810;28;20024;-57
2024/01/16 06:12:16;;;;;;;5.13;2.35;;;19.80;49.30;;;;;;5079829;28;20499;-58
2024/01/16 06:14:41;;;;;;;3.70;2.45;;;19.80;49.20;;;;;;5088979;28;20167;-51
2024/01/16 06:17:08;;;;;;;6.00;2.63;;;19.90;49.10;;;;;;5091984;28;20012;-52
2024/01/16 06:19:33;;;;;;;5.40;2.58;;;19.90;49.10;;;;;;5070691;28;20094;-58
2024/01/16 06:22:00;;;;;;;5.40;2.67;;;19.90;48.90;;;;;;5091585;28;20103;-54
2024/01/16 06:24:26;;;;;;;3.75;2.50;;;19.90;49.00;;;;;;5092822;28;20055;-53
2024/01/16 06:26:52;;;;;;;5.75;2.88;;;19.90;48.90;;;;;;5085339;28;20106;-57
2024/01/16 06:29:18;;;;;;;5.90;2.80;;;19.90;49.00;;;;;;5092507;28;20024;-55
2024/01/16 06:31:43;;;;;;;3.40;2.30;;;19.90;48.80;;;;;;5083600;28;20395;-58
2024/01/16 06:34:09;;;;;;;6.75;2.85;;;19.90;48.90;;;;;;5091221;28;20051;-53
2024/01/16 06:36:35;;;;;;;4.78;2.80;;;19.90;48.90;;;;;;5090216;28;20546;-56
2024/01/16 06:39:01;;;;;;;5.18;2.33;;;19.90;48.80;;;;;;5091543;28;20074;-57
2024/01/16 06:41:26;;;;;;;3.85;2.22;;;19.90;48.90;;;;;;5090923;28;20036;-55
2024/01/16 06:43:52;;;;;;;5.45;2.55;;;19.90;48.80;;;;;;5084145;28;20077;-54
2024/01/16 06:46:18;;;;;;;5.15;2.58;;;19.90;49.00;;;;;;5091015;28;20099;-58
2024/01/16 06:48:44;;;;;;;6.32;2.83;;;19.90;48.90;;;;;;5090786;28;20533;-56
2024/01/16 06:51:13;;;;;;;9.40;3.20;;;19.90;48.80;;;;;;5089925;28;20027;-52
2024/01/16 06:53:39;;;;;;;6.38;2.88;;;19.90;48.80;;;;;;5090743;28;20044;-55
2024/01/16 06:56:07;;;;;;;5.07;2.63;;;19.90;48.80;;;;;;5091740;28;20055;-55
2024/01/16 06:58:33;;;;;;;6.57;2.95;;;19.90;48.80;;;;;;5091622;28;20387;-58
2024/01/16 07:01:00;;;;;;;7.55;2.92;;;19.90;48.70;;;;;;5086864;28;20103;-56
2024/01/16 07:03:26;;;;;;;4.97;2.50;;;19.80;48.80;;;;;;5078910;28;20040;-59
2024/01/16 07:05:52;;;;;;;4.90;2.40;;;19.90;48.80;;;;;;5087065;28;20021;-56
2024/01/16 07:08:17;;;;;;;7.22;2.78;;;19.80;48.50;;;;;;5086448;28;20072;-52
2024/01/16 07:10:43;;;;;;;3.97;2.35;;;19.90;48.60;;;;;;5090337;28;20507;-58
2024/01/16 07:13:09;;;;;;;6.55;2.47;;;19.80;48.60;;;;;;5091222;28;20138;-56
2024/01/16 07:15:35;;;;;;;3.72;2.45;;;19.90;48.70;;;;;;5079726;28;20511;-57
2024/01/16 07:18:01;;;;;;;6.00;2.72;;;19.90;48.40;;;;;;5085837;28;20025;-56
2024/01/16 07:20:27;;;;;;;6.82;2.80;;;19.90;48.40;;;;;;5085712;28;20107;-57
2024/01/16 07:22:52;;;;;;;6.93;3.08;;;19.90;48.50;;;;;;5082460;28;20043;-57
2024/01/16 07:25:18;;;;;;;8.70;3.08;;;19.90;48.80;;;;;;5090704;28;20127;-57
2024/01/16 07:27:46;;;;;;;5.50;2.80;;;19.90;48.50;;;;;;5087469;28;20054;-53
2024/01/16 07:30:12;;;;;;;6.70;2.63;;;19.90;48.50;;;;;;5090901;28;20102;-56
2024/01/16 07:32:38;;;;;;;5.90;3.03;;;19.90;48.40;;;;;;5082317;28;20051;-57
2024/01/16 07:35:04;;;;;;;5.93;2.72;;;19.90;48.60;;;;;;5091183;28;20491;-54
2024/01/16 07:37:30;;;;;;;5.45;2.22;;;19.90;50.60;;;;;;5091112;28;20024;-53
2024/01/16 07:39:56;;;;;;;7.43;3.13;;;19.90;49.60;;;;;;5079353;28;20051;-52
2024/01/16 07:42:21;;;;;;;6.80;2.92;;;19.90;50.00;;;;;;5071437;28;20028;-53
2024/01/16 07:44:48;;;;;;;7.85;2.80;;;20.00;49.90;;;;;;5086102;28;20107;-53
2024/01/16 07:47:13;;;;;;;6.55;3.17;;;19.90;49.80;;;;;;5090628;28;20031;-53
2024/01/16 07:49:39;;;;;;;10.68;3.10;;;20.00;51.00;;;;;;5082346;28;20025;-53
2024/01/16 07:52:05;;;;;;;9.35;2.78;;;20.00;50.20;;;;;;5090319;28;20083;-50
2024/01/16 07:54:31;;;;;;;10.27;2.97;;;19.90;50.50;;;;;;5090830;28;20047;-54
2024/01/16 07:56:56;;;;;;;10.18;2.95;;;19.90;51.80;;;;;;5072769;28;20047;-52
2024/01/16 07:59:22;;;;;;;14.23;3.67;;;20.00;51.50;;;;;;5090743;28;20126;-53
2024/01/16 08:01:48;;;;;;;20.45;4.53;;;19.90;52.90;;;;;;5090308;28;20034;-55
2024/01/16 08:04:14;;;;;;;11.32;3.20;;;20.00;54.40;;;;;;5090622;28;20461;-53
2024/01/16 08:06:39;;;;;;;13.18;3.28;;;19.90;53.30;;;;;;5089637;28;20069;-55
2024/01/16 08:09:06;;;;;;;15.30;2.92;;;19.90;53.60;;;;;;5087768;28;20135;-52
2024/01/16 08:11:31;;;;;;;15.82;2.90;;;19.90;53.80;;;;;;5078303;28;20102;-54
2024/01/16 08:13:57;;;;;;;10.15;3.30;;;19.90;54.10;;;;;;5090795;28;20392;-51
2024/01/16 08:16:23;;;;;;;11.88;3.70;;;19.90;54.10;;;;;;5081686;28;20646;-55
2024/01/16 08:18:49;;;;;;;19.55;3.95;;;19.90;54.40;;;;;;5088726;28;20025;-59
2024/01/16 08:21:15;;;;;;;13.63;3.17;;;19.90;58.00;;;;;;5075661;28;20667;-57
2024/01/16 08:23:41;;;;;;;10.02;3.67;;;19.90;55.40;;;;;;5072044;28;20032;-52
2024/01/16 08:26:06;;;;;;;19.77;3.75;;;19.90;57.10;;;;;;5070207;28;20056;-55
2024/01/16 08:28:32;;;;;;;14.77;4.38;;;19.90;59.30;;;;;;5069842;28;20028;-50
2024/01/16 08:30:58;;;;;;;19.30;4.05;;;19.90;58.80;;;;;;5080575;28;20054;-52
2024/01/16 08:33:24;;;;;;;12.88;4.13;;;19.90;57.60;;;;;;5089437;28;20065;-52
2024/01/16 08:35:50;;;;;;;14.55;3.80;;;19.90;58.80;;;;;;5079019;28;20109;-55
2024/01/16 08:38:16;;;;;;;20.25;3.95;;;19.90;58.20;;;;;;5070057;28;20580;-55
2024/01/16 08:40:41;;;;;;;7.40;2.90;;;19.90;56.20;;;;;;5077941;28;20088;-56
2024/01/16 08:43:07;;;;;;;7.85;3.35;;;19.60;50.50;;;;;;5072575;28;20174;-55
2024/01/16 08:45:34;;;;;;;17.45;3.20;;;19.30;46.60;;;;;;5081411;28;20046;-50
2024/01/16 08:48:00;;;;;;;11.65;3.20;;;19.30;46.60;;;;;;5067582;28;20746;-51
2024/01/16 08:50:25;;;;;;;9.63;2.80;;;19.40;48.20;;;;;;5081810;28;20051;-55
2024/01/16 08:52:51;;;;;;;10.93;3.25;;;19.50;51.10;;;;;;5083977;28;20038;-56
2024/01/16 08:55:17;;;;;;;13.25;3.20;;;19.50;51.80;;;;;;5067546;28;20020;-54
2024/01/16 08:57:43;;;;;;;15.50;2.90;;;19.60;51.10;;;;;;5074500;28;20028;-52
2024/01/16 09:00:09;;;;;;;16.27;3.42;;;19.70;52.40;;;;;;5052669;28;20097;-55
2024/01/16 09:02:35;;;;;;;10.68;2.92;;;19.70;52.70;;;;;;5077663;28;20075;-56
2024/01/16 09:05:01;;;;;;;9.82;3.50;;;19.70;52.90;;;;;;5075097;28;20032;-54
2024/01/16 09:07:27;;;;;;;12.20;3.90;;;19.70;51.50;;;;;;5073411;28;20040;-57
2024/01/16 09:09:53;;;;;;;12.07;3.35;;;19.80;52.30;;;;;;5069750;28;20028;-57
2024/01/16 09:12:20;;;;;;;7.57;3.10;;;19.90;54.30;;;;;;5086678;28;20079;-57
2024/01/16 09:14:45;;;;;;;16.75;3.72;;;19.90;54.10;;;;;;5068835;28;20028;-55
2024/01/16 09:17:11;;;;;;;10.55;3.28;;;20.00;57.20;;;;;;5077705;28;20506;-55
2024/01/16 09:19:37;;;;;;;8.25;3.00;;;20.00;55.10;;;;;;5070251;28;20025;-55
2024/01/16 09:22:03;;;;;;;7.18;2.97;;;20.10;54.90;;;;;;5050700;28;20029;-57
2024/01/16 09:24:30;;;;;;;12.90;3.30;;;20.10;51.80;;;;;;5087443;28;20523;-50
2024/01/16 09:26:58;;;;;;;8.50;3.42;;;20.10;54.90;;;;;;5087096;28;20073;-54
2024/01/16 09:29:24;;;;;;;15.05;3.50;;;20.10;54.00;;;;;;5072390;28;20024;-52
2024/01/16 09:31:50;;;;;;;18.23;3.97;;;20.20;57.40;;;;;;5070242;28;20394;-53
2024/01/16 09:34:18;;;;;;;9.00;3.20;;;20.20;57.30;;;;;;5090701;28;20034;-55
2024/01/16 09:36:43;;;;;;;13.13;3.38;;;20.20;56.80;;;;;;5090819;28;20382;-52
2024/01/16 09:39:13;;;;;;;15.07;4.10;;;20.20;57.30;;;;;;5077325;28;20021;-51
2024/01/16 09:41:42;;;;;;;12.75;3.70;;;20.20;57.40;;;;;;5070302;28;20059;-55
2024/01/16 09:44:08;;;;;;;7.80;3.08;;;20.20;57.20;;;;;;5089067;28;20531;-51
2024/01/16 09:46:37;;;;;;;9.18;3.22;;;20.20;57.20;;;;;;5091384;28;20048;-55
2024/01/16 09:49:03;;;;;;;13.48;3.92;;;20.20;57.30;;;;;;5077984;28;20510;-57
2024/01/16 09:51:29;;;;;;;11.55;3.63;;;20.20;57.30;;;;;;5070035;28;20036;-58
2024/01/16 09:53:56;;;;;;;14.13;3.30;;;20.30;57.50;;;;;;5074511;28;20021;-55
2024/01/16 09:56:26;;;;;;;10.43;3.40;;;20.30;57.60;;;;;;5070638;28;20099;-54
2024/01/16 09:58:56;;;;;;;;;;;20.20;57.80;;;;;;5086214;28;20066;-55
2024/01/16 10:01:26;;;;;;;19.83;3.50;;;20.20;57.60;;;;;;5090618;28;19908;-52
2024/01/16 10:03:52;;;;;;;;;;;20.20;57.50;;;;;;5079803;28;20028;-53
2024/01/16 10:06:20;;;;;;;11.55;3.30;;;20.10;57.60;;;;;;5070581;28;19919;-58
2024/01/16 10:08:46;;;;;;;14.02;4.13;;;20.10;58.30;;;;;;5083862;28;20059;-56
2024/01/16 10:11:12;;;;;;;9.70;3.60;;;20.10;58.40;;;;;;5090147;28;21496;-52
2024/01/16 10:13:38;;;;;;;8.05;3.40;;;20.10;58.20;;;;;;5081182;28;20055;-53
2024/01/16 10:16:04;;;;;;;13.32;3.50;;;20.10;58.60;;;;;;5070403;28;20027;-50
2024/01/16 10:18:30;;;;;;;15.57;4.05;;;20.10;59.20;;;;;;5062861;28;20348;-53
2024/01/16 10:20:56;;;;;;;14.23;3.47;;;20.10;59.50;;;;;;5090125;28;20436;-57
2024/01/16 10:23:23;;;;;;;17.80;3.70;;;20.20;59.30;;;;;;5082717;28;20036;-55
2024/01/16 10:26:08;;;;;;;8.02;3.30;;;20.20;58.80;;;;;;5069596;28;20025;-57
2024/01/16 10:28:35;;;;;;;14.35;3.78;;;20.10;58.80;;;;;;5080997;28;20024;-52
2024/01/16 10:31:09;;;;;;;14.68;3.13;;;20.10;58.90;;;;;;5071267;28;20072;-56
2024/01/16 10:33:37;;;;;;;8.70;3.28;;;20.10;59.30;;;;;;5062839;28;20032;-52
2024/01/16 10:36:14;;;;;;;11.25;3.58;;;20.10;59.40;;;;;;5069889;28;20016;-56
2024/01/16 10:38:42;;;;;;;12.80;3.80;;;20.10;59.00;;;;;;5080979;28;20032;-52
2024/01/16 10:41:12;;;;;;;18.92;3.80;;;20.10;59.70;;;;;;5089236;28;20062;-54
2024/01/16 10:43:38;;;;;;;13.65;3.15;;;20.10;58.90;;;;;;5080909;28;20032;-58
2024/01/16 10:46:23;;;;;;;12.32;3.78;;;20.10;58.90;;;;;;5069878;28;20040;-56
2024/01/16 10:49:03;;;;;;;10.18;3.58;;;20.10;59.90;;;;;;5063672;28;20040;-51
2024/01/16 10:51:30;;;;;;;12.82;3.50;;;20.10;60.20;;;;;;5089365;28;20028;-56
2024/01/16 10:54:02;;;;;;;12.20;3.60;;;20.10;60.00;;;;;;5077719;28;20028;-56
2024/01/16 10:56:28;;;;;;;11.55;4.10;;;20.10;60.40;;;;;;5069197;28;20644;-56
2024/01/16 10:59:33;;;;;;;13.75;3.90;;;20.10;59.40;;;;;;5081320;28;20032;-56
2024/01/16 11:02:01;;;;;;;29.23;4.63;;;20.10;60.00;;;;;;5089576;28;20061;-58
2024/01/16 11:04:28;;;;;;;25.42;4.53;;;19.90;54.10;;;;;;5063571;28;20108;-57
2024/01/16 11:06:54;;;;;;;15.18;4.22;;;19.80;54.20;;;;;;5069882;28;20827;-56
2024/01/16 11:09:21;;;;;;;17.17;4.30;;;19.80;55.40;;;;;;5084394;28;20042;-53
2024/01/16 11:11:49;;;;;;;24.65;4.38;;;19.80;55.60;;;;;;5054683;28;20024;-54
2024/01/16 11:14:15;;;;;;;16.58;3.88;;;19.90;56.10;;;;;;5089579;28;20089;-54
2024/01/16 11:16:42;;;;;;;18.15;3.50;;;19.80;55.80;;;;;;5088949;28;20020;-55
2024/01/16 11:19:11;;;;;;;13.95;3.75;;;19.80;56.40;;;;;;5084437;28;20052;-53
2024/01/16 11:21:38;;;;;;;14.38;3.65;;;19.90;56.20;;;;;;5069056;28;20043;-51
2024/01/16 11:24:04;;;;;;;17.38;3.80;;;19.90;56.90;;;;;;5063237;28;20032;-57
2024/01/16 11:26:36;;;;;;;13.73;3.38;;;19.90;56.70;;;;;;5089467;28;20111;-55
2024/01/16 11:29:25;;;;;;;18.35;3.78;;;19.90;57.70;;;;;;5085526;28;20025;-53
2024/01/16 11:31:50;;;;;;;32.38;4.82;;;20.00;57.40;;;;;;5068049;28;20094;-51
2024/01/16 11:34:42;;;;;;;15.30;3.70;;;19.90;56.20;;;;;;5081815;28;20471;-53
2024/01/16 11:37:09;;;;;;;13.07;3.88;;;19.90;56.30;;;;;;5088789;28;20096;-52
2024/01/16 11:39:35;;;;;;;15.70;3.92;;;19.90;56.40;;;;;;5079689;28;20074;-55
2024/01/16 11:42:04;;;;;;;16.60;3.88;;;19.90;56.60;;;;;;5050313;28;20103;-51
2024/01/16 11:44:41;;;;;;;10.02;3.53;;;19.90;56.70;;;;;;5083056;28;20632;-49
2024/01/16 11:47:08;;;;;;;12.63;3.72;;;19.90;56.50;;;;;;5088739;28;20080;-52
2024/01/16 11:49:36;;;;;;;15.68;3.30;;;19.90;57.60;;;;;;5080077;28;20025;-49
2024/01/16 11:52:02;;;;;;;12.93;3.78;;;19.90;56.80;;;;;;5067114;28;20156;-51
2024/01/16 11:54:28;;;;;;;15.35;3.88;;;19.90;56.60;;;;;;5077404;28;20025;-53
2024/01/16 11:57:09;;;;;;;10.32;3.65;;;19.90;56.80;;;;;;5050088;28;20031;-52
2024/01/16 11:59:59;;;;;;;11.63;3.40;;;19.90;56.70;;;;;;5064568;28;20059;-53
2024/01/16 12:02:50;;;;;;;18.98;3.50;;;19.80;56.70;;;;;;5069917;28;20456;-55
2024/01/16 12:05:15;;;;;;;11.40;3.72;;;19.80;56.80;;;;;;5074212;28;20112;-52
2024/01/16 12:07:49;;;;;;;11.40;3.20;;;19.80;56.70;;;;;;5068226;28;20111;-57
2024/01/16 12:10:22;;;;;;;10.98;3.90;;;19.80;56.90;;;;;;5087028;28;20111;-57
2024/01/16 12:12:49;;;;;;;11.43;3.67;;;19.80;57.00;;;;;;5088046;28;20028;-57
2024/01/16 12:15:22;;;;;;;22.75;3.92;;;19.80;57.00;;;;;;5073772;28;20025;-55
2024/01/16 12:18:00;;;;;;;13.70;3.97;;;19.80;58.20;;;;;;5067815;28;20047;-57
2024/01/16 12:20:29;;;;;;;13.77;3.83;;;19.80;58.70;;;;;;5087965;28;20020;-55
2024/01/16 12:22:59;;;;;;;11.85;3.60;;;19.90;57.90;;;;;;5087782;28;20065;-56
2024/01/16 12:25:27;;;;;;;10.05;3.80;;;19.80;56.00;;;;;;5072923;28;20079;-57
2024/01/16 12:27:57;;;;;;;13.45;3.40;;;19.50;50.30;;;;;;5068264;28;20128;-54
2024/01/16 12:30:28;;;;;;;11.10;3.45;;;19.50;51.30;;;;;;5086652;28;20028;-57
2024/01/16 12:33:13;;;;;;;11.07;3.72;;;19.50;53.00;;;;;;5088126;28;20032;-57
2024/01/16 12:35:41;;;;;;;11.93;3.58;;;19.60;53.20;;;;;;5067907;28;20028;-57
2024/01/16 12:38:11;;;;;;;11.50;3.53;;;19.70;54.30;;;;;;5050264;28;20048;-57
2024/01/16 12:40:49;;;;;;;12.23;3.65;;;19.70;54.30;;;;;;5049768;28;20031;-58
2024/01/16 12:43:19;;;;;;;12.73;4.10;;;19.70;54.60;;;;;;5068193;28;20024;-57